createdAt,value
2023-02-16T00:01:19.507Z,102871.77
2023-02-16T00:03:48.556Z,102875.37
2023-02-16T00:06:18.928Z,102875.50
2023-02-16T00:08:50.583Z,102875.61
2023-02-16T00:11:49.476Z,102877.64
2023-02-16T00:14:22.873Z,102877.98
2023-02-16T00:16:51.154Z,102878.48
2023-02-16T00:19:23.719Z,102880.48
2023-02-16T00:21:54.454Z,102878.56
2023-02-16T00:24:23.447Z,102882.23
2023-02-16T00:26:51.829Z,102875.54
2023-02-16T00:29:25.014Z,102873.93
2023-02-16T00:31:54.726Z,102873.63
2023-02-16T00:34:33.151Z,102873.13
2023-02-16T00:37:09.142Z,102878.82
2023-02-16T00:39:38.498Z,102877.82
2023-02-16T00:42:12.097Z,102874.48
2023-02-16T00:44:45.363Z,102873.77
2023-02-16T00:47:28.315Z,102866.96
2023-02-16T00:49:58.243Z,102860.94
2023-02-16T00:52:35.826Z,102862.55
2023-02-16T00:55:12.449Z,102864.09
2023-02-16T00:57:57.670Z,102865.16
2023-02-16T01:00:38.437Z,102860.63
2023-02-16T01:03:09.909Z,102861.22
2023-02-16T01:05:38.362Z,102859.60
2023-02-16T01:08:32.548Z,102859.54
2023-02-16T01:11:10.473Z,102856.66
2023-02-16T01:13:47.798Z,102853.39
2023-02-16T01:16:23.076Z,102846.77
2023-02-16T01:18:51.558Z,102847.09
2023-02-16T01:21:24.441Z,102847.16
2023-02-16T01:23:54.364Z,102847.06
2023-02-16T01:26:23.443Z,102846.77
2023-02-16T01:28:51.826Z,102846.91
2023-02-16T01:31:21.904Z,102845.77
2023-02-16T01:33:51.040Z,102847.67
2023-02-16T01:36:43.796Z,102849.56
2023-02-16T01:39:14.313Z,102841.20
2023-02-16T01:41:49.040Z,102840.59
2023-02-16T01:44:21.823Z,102841.44
2023-02-16T01:46:57.991Z,102843.13
2023-02-16T01:49:27.384Z,102842.35
2023-02-16T01:52:02.113Z,102836.62
2023-02-16T01:54:54.052Z,102838.63
2023-02-16T01:57:29.079Z,102843.11
2023-02-16T01:59:57.664Z,102843.44
2023-02-16T02:02:29.650Z,102843.95
2023-02-16T02:05:18.798Z,102837.43
2023-02-16T02:07:56.177Z,102840.88
2023-02-16T02:10:29.303Z,102837.17
2023-02-16T02:13:20.789Z,102831.08
2023-02-16T02:15:49.690Z,102835.18
2023-02-16T02:18:18.467Z,102840.65
2023-02-16T02:21:38.966Z,102842.01
2023-02-16T02:24:29.359Z,102849.24
2023-02-16T02:27:07.795Z,102852.05
2023-02-16T02:29:55.155Z,102849.64
2023-02-16T02:32:42.212Z,102854.09
2023-02-16T02:35:20.004Z,102857.47
2023-02-16T02:38:03.128Z,102853.77
2023-02-16T02:40:41.953Z,102853.38
2023-02-16T02:43:18.121Z,102852.75
2023-02-16T02:45:58.166Z,102855.84
2023-02-16T02:48:31.590Z,102858.79
2023-02-16T02:51:27.997Z,102863.31
2023-02-16T02:55:08.992Z,102865.21
2023-02-16T02:58:01.525Z,102863.37
2023-02-16T03:00:47.761Z,102865.54
2023-02-16T03:03:32.396Z,102864.48
2023-02-16T03:06:05.580Z,102860.80
2023-02-16T03:08:37.732Z,102862.95
2023-02-16T03:11:31.823Z,102868.05
2023-02-16T03:14:08.382Z,102868.94
2023-02-16T03:16:38.865Z,102868.68
2023-02-16T03:19:26.245Z,102869.30
2023-02-16T03:22:14.786Z,102874.59
2023-02-16T03:25:02.624Z,102875.95
2023-02-16T03:27:52.394Z,102875.62
2023-02-16T03:30:22.075Z,102876.47
2023-02-16T03:32:50.893Z,102876.93
2023-02-16T03:35:19.678Z,102877.14
2023-02-16T03:37:48.085Z,102877.13
2023-02-16T03:40:28.652Z,102876.35
2023-02-16T03:43:02.218Z,102878.84
2023-02-16T03:45:51.600Z,102876.15
2023-02-16T03:48:19.935Z,102876.48
2023-02-16T03:50:48.354Z,102876.55
2023-02-16T03:53:18.398Z,102882.48
2023-02-16T03:55:48.488Z,102882.98
2023-02-16T03:58:20.138Z,102883.41
2023-02-16T04:00:50.258Z,102883.45
2023-02-16T04:03:20.172Z,102880.27
2023-02-16T04:05:49.266Z,102881.09
2023-02-16T04:08:18.876Z,102882.52
2023-02-16T04:10:48.412Z,102880.62
2023-02-16T04:13:18.088Z,102882.63
2023-02-16T04:15:46.467Z,102876.67
2023-02-16T04:18:14.946Z,102873.66
2023-02-16T04:20:43.322Z,102878.08
2023-02-16T04:23:11.748Z,102877.55
2023-02-16T04:25:40.079Z,102880.27
2023-02-16T04:28:09.082Z,102875.98
2023-02-16T04:30:37.756Z,102877.88
2023-02-16T04:33:06.851Z,102878.44
2023-02-16T04:35:36.052Z,102874.13
2023-02-16T04:38:05.915Z,102873.52
2023-02-16T04:40:36.292Z,102874.17
2023-02-16T04:43:04.671Z,102876.85
2023-02-16T04:45:33.345Z,102875.59
2023-02-16T04:48:01.933Z,102870.52
2023-02-16T04:50:31.947Z,102874.56
2023-02-16T04:53:00.528Z,102874.34
2023-02-16T04:55:30.032Z,102879.97
2023-02-16T04:57:58.513Z,102883.70
2023-02-16T05:00:27.213Z,102881.30
2023-02-16T05:02:55.676Z,102882.77
2023-02-16T05:05:24.361Z,102884.76
2023-02-16T05:07:52.638Z,102886.11
2023-02-16T05:10:23.378Z,102890.10
2023-02-16T05:16:16.996Z,102889.64
2023-02-16T05:18:51.288Z,102884.26
2023-02-16T05:21:33.790Z,102886.06
2023-02-16T05:24:04.040Z,102889.38
2023-02-16T05:26:33.668Z,102885.31
2023-02-16T05:29:02.202Z,102885.78
2023-02-16T05:31:32.524Z,102889.21
2023-02-16T05:34:00.971Z,102884.73
2023-02-16T05:36:29.392Z,102883.35
2023-02-16T05:38:58.376Z,102889.96
2023-02-16T05:41:26.970Z,102888.80
2023-02-16T05:44:00.170Z,102893.98
2023-02-16T05:46:29.527Z,102891.89
2023-02-16T05:48:58.159Z,102888.05
2023-02-16T05:51:27.132Z,102893.33
2023-02-16T05:53:55.728Z,102893.42
2023-02-16T05:56:29.099Z,102889.88
2023-02-16T05:58:59.441Z,102884.56
2023-02-16T06:01:28.931Z,102888.31
2023-02-16T06:03:57.709Z,102894.23
2023-02-16T06:06:26.409Z,102893.55
2023-02-16T06:08:54.785Z,102896.47
2023-02-16T06:11:36.307Z,102894.69
2023-02-16T06:14:11.476Z,102896.41
2023-02-16T06:16:40.812Z,102899.23
2023-02-16T06:19:11.649Z,102896.31
2023-02-16T06:21:40.539Z,102893.73
2023-02-16T06:24:10.762Z,102898.50
2023-02-16T06:26:39.546Z,102904.79
2023-02-16T06:29:08.138Z,102904.83
2023-02-16T06:31:37.233Z,102906.71
2023-02-16T06:34:05.944Z,102906.67
2023-02-16T06:36:34.684Z,102903.73
2023-02-16T06:39:03.294Z,102901.75
2023-02-16T06:41:38.207Z,102905.91
2023-02-16T06:44:08.740Z,102904.23
2023-02-16T06:46:37.366Z,102906.71
2023-02-16T06:49:06.256Z,102906.20
2023-02-16T06:51:34.485Z,102904.37
2023-02-16T06:54:03.478Z,102903.08
2023-02-16T06:56:32.058Z,102903.64
2023-02-16T06:59:00.441Z,102896.09
2023-02-16T07:01:29.731Z,102900.51
2023-02-16T07:03:58.337Z,102902.80
2023-02-16T07:06:28.060Z,102899.79
2023-02-16T07:08:57.032Z,102900.84
2023-02-16T07:11:25.704Z,102897.63
2023-02-16T07:13:54.214Z,102898.10
2023-02-16T07:16:23.876Z,102895.50
2023-02-16T07:18:52.787Z,102900.91
2023-02-16T07:21:21.475Z,102899.60
2023-02-16T07:23:49.976Z,102896.59
2023-02-16T07:26:19.453Z,102894.48
2023-02-16T07:28:48.165Z,102896.65
2023-02-16T07:31:17.696Z,102897.73
2023-02-16T07:33:46.329Z,102898.52
2023-02-16T07:36:15.036Z,102896.84
2023-02-16T07:38:43.505Z,102894.55
2023-02-16T07:41:13.562Z,102891.09
2023-02-16T07:43:43.264Z,102897.28
2023-02-16T07:46:12.186Z,102892.64
2023-02-16T07:48:41.406Z,102899.57
2023-02-16T07:51:09.825Z,102887.70
2023-02-16T07:53:38.267Z,102891.30
2023-02-16T07:56:06.947Z,102891.52
2023-02-16T07:58:35.221Z,102889.52
2023-02-16T08:01:10.995Z,102889.29
2023-02-16T08:03:39.590Z,102888.11
2023-02-16T08:06:07.977Z,102889.80
2023-02-16T08:08:36.823Z,102887.72
2023-02-16T08:11:22.426Z,102886.68
2023-02-16T08:13:51.213Z,102888.20
2023-02-16T08:16:24.021Z,102888.63
2023-02-16T08:18:52.773Z,102887.67
2023-02-16T08:21:23.806Z,102892.71
2023-02-16T08:24:03.375Z,102895.15
2023-02-16T08:26:38.802Z,102900.86
2023-02-16T08:29:07.520Z,102900.54
2023-02-16T08:31:38.525Z,102903.95
2023-02-16T08:34:07.082Z,102905.79
2023-02-16T08:36:38.387Z,102906.92
2023-02-16T08:39:15.506Z,102905.91
2023-02-16T08:41:44.527Z,102905.95
2023-02-16T08:44:13.120Z,102908.70
2023-02-16T08:46:43.235Z,102908.92
2023-02-16T08:49:12.114Z,102909.40
2023-02-16T08:51:45.563Z,102910.33
2023-02-16T08:54:22.181Z,102906.06
2023-02-16T08:56:50.997Z,102899.66
2023-02-16T08:59:20.469Z,102899.02
2023-02-16T09:01:49.465Z,102905.19
2023-02-16T09:04:19.375Z,102910.06
2023-02-16T09:06:49.197Z,102908.89
2023-02-16T09:09:18.382Z,102910.58
2023-02-16T09:11:46.838Z,102908.73
2023-02-16T09:14:17.682Z,102905.79
2023-02-16T09:16:46.690Z,102909.23
2023-02-16T09:19:16.829Z,102907.33
2023-02-16T09:21:45.396Z,102911.91
2023-02-16T09:24:16.316Z,102912.73
2023-02-16T09:27:03.023Z,102909.54
2023-02-16T09:29:32.032Z,102914.96
2023-02-16T09:32:00.734Z,102911.27
2023-02-16T09:34:30.233Z,102911.05
2023-02-16T09:36:58.702Z,102910.66
2023-02-16T09:39:27.213Z,102913.00
2023-02-16T09:41:55.772Z,102913.20
2023-02-16T09:44:38.182Z,102913.91
2023-02-16T09:47:13.724Z,102915.10
2023-02-16T09:49:42.818Z,102912.27
2023-02-16T09:52:43.552Z,102912.56
2023-02-16T09:55:16.537Z,102911.12
2023-02-16T09:58:04.480Z,102907.40
2023-02-16T10:00:33.134Z,102905.27
2023-02-16T10:03:14.032Z,102901.39
2023-02-16T10:06:01.466Z,102897.52
2023-02-16T10:08:37.523Z,102894.45
2023-02-16T10:11:46.931Z,102888.84
2023-02-16T10:14:25.326Z,102888.23
2023-02-16T10:17:17.027Z,102888.33
2023-02-16T10:20:06.465Z,102884.63
2023-02-16T10:23:13.548Z,102885.08
2023-02-16T10:25:57.902Z,102883.98
2023-02-16T10:28:46.569Z,102887.00
2023-02-16T10:31:21.258Z,102884.34
2023-02-16T10:34:38.114Z,102882.48
2023-02-16T10:38:01.996Z,102876.25
2023-02-16T10:40:35.379Z,102873.60
2023-02-16T10:43:19.022Z,102876.33
2023-02-16T10:45:52.554Z,102875.88
2023-02-16T10:48:21.941Z,102873.06
2023-02-16T10:51:06.438Z,102871.02
2023-02-16T10:53:37.513Z,102871.40
2023-02-16T10:56:22.082Z,102869.72
2023-02-16T10:58:53.970Z,102866.09
2023-02-16T11:01:30.738Z,102862.48
2023-02-16T11:03:59.077Z,102857.84
2023-02-16T11:06:27.478Z,102854.89
2023-02-16T11:09:01.407Z,102854.23
2023-02-16T11:11:40.131Z,102847.96
2023-02-16T11:14:23.521Z,102844.68
2023-02-16T11:17:16.784Z,102839.44
2023-02-16T11:19:57.481Z,102837.89
2023-02-16T11:22:32.097Z,102838.23
2023-02-16T11:25:27.176Z,102836.52
2023-02-16T11:28:00.415Z,102835.16
2023-02-16T11:30:41.864Z,102832.09
2023-02-16T11:33:24.478Z,102830.39
2023-02-16T11:35:53.047Z,102826.95
2023-02-16T11:38:29.715Z,102818.68
2023-02-16T11:40:59.226Z,102815.96
2023-02-16T11:43:28.793Z,102812.21
2023-02-16T11:45:59.050Z,102809.65
2023-02-16T11:48:29.484Z,102806.62
2023-02-16T11:51:06.791Z,102799.76
2023-02-16T11:53:38.001Z,102794.77
2023-02-16T11:56:27.388Z,102790.84
2023-02-16T11:59:24.559Z,102794.53
2023-02-16T12:02:30.823Z,102791.48
2023-02-16T12:05:18.045Z,102784.65
2023-02-16T12:07:59.089Z,102780.77
2023-02-16T12:10:53.373Z,102779.66
2023-02-16T12:13:24.719Z,102779.41
2023-02-16T12:16:08.272Z,102774.31
2023-02-16T12:18:55.720Z,102772.33
2023-02-16T12:21:28.871Z,102772.93
2023-02-16T12:24:28.292Z,102770.77
2023-02-16T12:27:04.741Z,102776.20
2023-02-16T12:30:10.587Z,102771.92
2023-02-16T12:32:51.456Z,102768.86
2023-02-16T12:35:47.907Z,102764.98
2023-02-16T12:38:38.704Z,102760.55
2023-02-16T12:41:32.889Z,102761.73
2023-02-16T12:44:06.387Z,102760.80
2023-02-16T12:46:45.311Z,102754.05
2023-02-16T12:49:18.604Z,102757.33
2023-02-16T12:52:05.528Z,102753.30
2023-02-16T12:54:39.035Z,102753.77
2023-02-16T12:57:12.237Z,102745.59
2023-02-16T13:00:05.570Z,102739.23
2023-02-16T13:02:43.682Z,102736.41
2023-02-16T13:05:27.011Z,102731.58
2023-02-16T13:07:58.918Z,102725.38
2023-02-16T13:10:36.772Z,102719.67
2023-02-16T13:13:16.586Z,102720.20
2023-02-16T13:16:14.932Z,102718.68
2023-02-16T13:18:52.815Z,102718.88
2023-02-16T13:21:33.298Z,102719.24
2023-02-16T13:24:12.494Z,102713.61
2023-02-16T13:26:52.751Z,102712.77
2023-02-16T13:29:38.549Z,102709.27
2023-02-16T13:32:28.831Z,102705.08
2023-02-16T13:35:16.473Z,102706.25
2023-02-16T13:38:00.304Z,102704.48
2023-02-16T13:40:47.533Z,102706.52
2023-02-16T13:43:25.126Z,102707.52
2023-02-16T13:45:54.758Z,102700.22
2023-02-16T13:48:28.934Z,102697.44
2023-02-16T13:50:59.724Z,102694.65
2023-02-16T13:53:33.064Z,102689.08
2023-02-16T13:56:23.591Z,102680.67
2023-02-16T13:58:53.074Z,102680.48
2023-02-16T14:01:43.274Z,102677.23
2023-02-16T14:04:32.143Z,102671.95
2023-02-16T14:07:01.623Z,102668.18
2023-02-16T14:09:31.128Z,102657.86
2023-02-16T14:12:02.470Z,102655.66
2023-02-16T14:14:32.870Z,102651.91
2023-02-16T14:17:22.161Z,102652.77
2023-02-16T14:20:07.742Z,102653.39
2023-02-16T14:22:48.823Z,102648.48
2023-02-16T14:25:20.678Z,102646.16
2023-02-16T14:27:49.676Z,102647.65
2023-02-16T14:30:27.785Z,102645.38
2023-02-16T14:33:16.681Z,102644.29
2023-02-16T14:35:47.379Z,102642.71
2023-02-16T14:38:18.924Z,102637.45
2023-02-16T14:40:55.618Z,102633.93
2023-02-16T14:43:42.916Z,102634.30
2023-02-16T14:46:36.770Z,102632.47
2023-02-16T14:49:24.423Z,102631.98
2023-02-16T14:52:11.949Z,102631.80
2023-02-16T14:55:08.195Z,102630.70
2023-02-16T14:57:46.085Z,102626.92
2023-02-16T15:00:29.416Z,102628.22
2023-02-16T15:03:02.332Z,102626.04
2023-02-16T15:05:33.579Z,102622.98
2023-02-16T15:08:03.044Z,102623.89
2023-02-16T15:10:32.443Z,102621.70
2023-02-16T15:13:00.926Z,102620.06
2023-02-16T15:15:45.140Z,102616.56
2023-02-16T15:18:28.609Z,102616.70
2023-02-16T15:20:59.342Z,102618.06
2023-02-16T15:23:34.714Z,102612.67
2023-02-16T15:26:03.714Z,102619.51
2023-02-16T15:28:36.762Z,102618.36
2023-02-16T15:31:07.671Z,102622.20
2023-02-16T15:33:43.534Z,102619.67
2023-02-16T15:36:14.452Z,102621.15
2023-02-16T15:38:55.573Z,102625.23
2023-02-16T15:41:30.186Z,102618.66
2023-02-16T15:43:59.087Z,102617.64
2023-02-16T15:46:42.207Z,102620.58
2023-02-16T15:49:14.676Z,102622.92
2023-02-16T15:51:43.462Z,102628.37
2023-02-16T15:54:25.363Z,102623.40
2023-02-16T15:56:57.490Z,102621.59
2023-02-16T15:59:38.941Z,102620.71
2023-02-16T16:02:18.877Z,102622.11
2023-02-16T16:04:55.170Z,102621.77
2023-02-16T16:07:33.075Z,102623.48
2023-02-16T16:10:02.008Z,102623.77
2023-02-16T16:12:30.903Z,102620.25
2023-02-16T16:15:00.621Z,102620.20
2023-02-16T16:17:34.619Z,102620.68
2023-02-16T16:20:19.304Z,102615.51
2023-02-16T16:22:55.233Z,102609.83
2023-02-16T16:25:32.828Z,102604.66
2023-02-16T16:28:01.963Z,102605.39
2023-02-16T16:30:32.632Z,102602.46
2023-02-16T16:33:02.813Z,102603.64
2023-02-16T16:35:48.051Z,102605.91
2023-02-16T16:38:28.057Z,102603.02
2023-02-16T16:40:59.007Z,102597.88
2023-02-16T16:43:29.486Z,102593.92
2023-02-16T16:46:17.911Z,102590.09
2023-02-16T16:48:47.841Z,102588.55
2023-02-16T16:51:18.256Z,102587.05
2023-02-16T16:54:01.077Z,102585.72
2023-02-16T16:56:30.076Z,102583.52
2023-02-16T16:58:59.059Z,102580.11
2023-02-16T17:01:28.528Z,102577.73
2023-02-16T17:03:57.182Z,102574.82
2023-02-16T17:06:25.937Z,102566.04
2023-02-16T17:08:55.540Z,102564.53
2023-02-16T17:11:35.498Z,102561.08
2023-02-16T17:14:14.933Z,102556.84
2023-02-16T17:16:44.963Z,102558.43
2023-02-16T17:19:14.959Z,102561.21
2023-02-16T17:21:43.548Z,102562.77
2023-02-16T17:24:12.844Z,102560.53
2023-02-16T17:26:42.665Z,102555.72
2023-02-16T17:29:12.468Z,102552.80
2023-02-16T17:31:41.403Z,102552.30
2023-02-16T17:34:10.035Z,102548.50
2023-02-16T17:36:39.131Z,102546.77
2023-02-16T17:39:09.048Z,102545.95
2023-02-16T17:41:37.728Z,102540.63
2023-02-16T17:44:06.111Z,102542.55
2023-02-16T17:46:42.295Z,102538.08
2023-02-16T17:49:11.464Z,102537.38
2023-02-16T17:51:39.985Z,102533.92
2023-02-16T17:54:13.251Z,102533.33
2023-02-16T17:56:42.043Z,102534.45
2023-02-16T17:59:14.103Z,102532.26
2023-02-16T18:01:43.819Z,102528.33
2023-02-16T18:04:12.527Z,102513.98
2023-02-16T18:06:41.930Z,102508.09
2023-02-16T18:09:20.744Z,102501.67
2023-02-16T18:11:49.918Z,102499.77
2023-02-16T18:14:18.591Z,102496.36
2023-02-16T18:16:51.680Z,102492.95
2023-02-16T18:19:20.264Z,102485.00
2023-02-16T18:21:54.479Z,102483.59
2023-02-16T18:24:22.983Z,102484.42
2023-02-16T18:26:55.023Z,102486.30
2023-02-16T18:29:23.716Z,102485.26
2023-02-16T18:31:52.235Z,102483.20
2023-02-16T18:34:21.498Z,102480.45
2023-02-16T18:36:49.975Z,102484.42
2023-02-16T18:39:18.558Z,102476.13
2023-02-16T18:41:47.271Z,102477.17
2023-02-16T18:44:16.646Z,102478.20
2023-02-16T18:46:45.127Z,102479.95
2023-02-16T18:49:14.426Z,102477.17
2023-02-16T18:51:42.908Z,102481.15
2023-02-16T18:54:13.545Z,102474.95
2023-02-16T18:56:42.230Z,102469.23
2023-02-16T18:59:11.247Z,102465.98
2023-02-16T19:01:40.305Z,102463.94
2023-02-16T19:04:08.839Z,102457.75
2023-02-16T19:06:38.460Z,102454.85
2023-02-16T19:09:10.872Z,102449.50
2023-02-16T19:11:39.659Z,102452.79
2023-02-16T19:14:09.371Z,102445.39
2023-02-16T19:16:39.081Z,102439.89
2023-02-16T19:19:07.285Z,102438.57
2023-02-16T19:21:36.245Z,102432.90
2023-02-16T19:24:05.650Z,102423.61
2023-02-16T19:26:34.023Z,102415.66
2023-02-16T19:29:02.607Z,102413.05
2023-02-16T19:31:31.768Z,102413.40
2023-02-16T19:34:01.412Z,102414.11
2023-02-16T19:36:31.852Z,102415.69
2023-02-16T19:39:03.597Z,102416.09
2023-02-16T19:41:35.653Z,102412.63
2023-02-16T19:44:04.750Z,102408.82
2023-02-16T19:46:34.815Z,102405.35
2023-02-16T19:49:03.172Z,102406.73
2023-02-16T19:51:31.723Z,102408.34
2023-02-16T19:54:01.640Z,102407.15
2023-02-16T19:56:30.229Z,102399.21
2023-02-16T19:59:00.650Z,102389.88
2023-02-16T20:01:29.376Z,102390.70
2023-02-16T20:03:58.321Z,102383.45
2023-02-16T20:06:28.952Z,102383.27
2023-02-16T20:09:00.303Z,102378.27
2023-02-16T20:11:29.272Z,102380.90
2023-02-16T20:13:58.188Z,102381.60
2023-02-16T20:16:27.332Z,102375.02
2023-02-16T20:18:55.662Z,102373.62
2023-02-16T20:21:26.139Z,102368.59
2023-02-16T20:23:59.110Z,102363.58
2023-02-16T20:26:30.588Z,102358.06
2023-02-16T20:29:00.440Z,102349.27
2023-02-16T20:32:01.277Z,102349.79
2023-02-16T20:34:31.499Z,102341.63
2023-02-16T20:37:03.661Z,102341.09
2023-02-16T20:39:33.065Z,102337.10
2023-02-16T20:42:01.553Z,102338.46
2023-02-16T20:44:30.606Z,102329.67
2023-02-16T20:46:59.121Z,102323.80
2023-02-16T20:49:27.599Z,102321.86
2023-02-16T20:51:56.079Z,102325.22
2023-02-16T20:54:24.560Z,102318.45
2023-02-16T20:56:52.969Z,102313.25
2023-02-16T20:59:21.929Z,102311.17
2023-02-16T21:01:52.503Z,102309.83
2023-02-16T21:04:21.561Z,102309.35
2023-02-16T21:06:50.031Z,102309.55
2023-02-16T21:09:18.724Z,102302.85
2023-02-16T21:11:47.233Z,102306.89
2023-02-16T21:14:15.677Z,102303.28
2023-02-16T21:16:44.269Z,102302.45
2023-02-16T21:19:22.572Z,102298.00
2023-02-16T21:21:53.207Z,102295.83
2023-02-16T21:24:21.891Z,102288.77
2023-02-16T21:26:51.219Z,102287.61
2023-02-16T21:29:19.669Z,102285.16
2023-02-16T21:31:48.299Z,102278.40
2023-02-16T21:34:17.141Z,102280.29
2023-02-16T21:36:46.238Z,102274.23
2023-02-16T21:39:14.738Z,102270.09
2023-02-16T21:41:42.949Z,102260.95
2023-02-16T21:44:14.697Z,102263.38
2023-02-16T21:46:44.890Z,102259.41
2023-02-16T21:49:15.400Z,102250.16
2023-02-16T21:51:44.905Z,102245.62
2023-02-16T21:54:39.098Z,102241.48
2023-02-16T21:57:07.462Z,102239.41
2023-02-16T21:59:35.980Z,102233.01
2023-02-16T22:02:04.734Z,102234.04
2023-02-16T22:04:35.564Z,102229.91
2023-02-16T22:07:04.454Z,102230.17
2023-02-16T22:09:34.266Z,102231.91
2023-02-16T22:12:03.274Z,102225.84
2023-02-16T22:14:33.479Z,102226.36
2023-02-16T22:17:04.622Z,102228.94
2023-02-16T22:19:33.616Z,102226.53
2023-02-16T22:22:02.104Z,102225.81
2023-02-16T22:24:30.574Z,102225.45
2023-02-16T22:26:58.854Z,102221.45
2023-02-16T22:32:43.944Z,102210.42
2023-02-16T22:35:12.937Z,102205.23
2023-02-16T22:37:41.213Z,102202.67
2023-02-16T22:40:10.107Z,102200.45
2023-02-16T22:42:38.327Z,102198.02
2023-02-16T22:45:07.483Z,102197.14
2023-02-16T22:47:36.057Z,102191.59
2023-02-16T22:50:05.579Z,102184.83
2023-02-16T22:52:34.145Z,102182.42
2023-02-16T22:55:02.624Z,102173.95
2023-02-16T22:57:37.352Z,102174.13
2023-02-16T23:00:08.596Z,102174.64
2023-02-16T23:02:37.999Z,102173.43
2023-02-16T23:05:07.197Z,102173.42
2023-02-16T23:07:35.884Z,102176.91
2023-02-16T23:10:07.546Z,102176.92
2023-02-16T23:12:37.364Z,102171.95
2023-02-16T23:15:06.444Z,102167.80
2023-02-16T23:17:35.031Z,102162.96
2023-02-16T23:20:06.482Z,102161.06
2023-02-16T23:22:34.860Z,102161.41
2023-02-16T23:25:21.867Z,102162.27
2023-02-16T23:27:53.316Z,102159.70
2023-02-16T23:30:21.768Z,102152.81
2023-02-16T23:32:50.691Z,102151.80
2023-02-16T23:35:19.136Z,102152.14
2023-02-16T23:37:47.270Z,102151.97
2023-02-16T23:40:15.617Z,102151.11
2023-02-16T23:42:44.102Z,102149.92
2023-02-16T23:45:12.592Z,102146.13
2023-02-16T23:47:43.308Z,102141.47
2023-02-16T23:50:12.027Z,102141.11
2023-02-16T23:52:44.159Z,102136.27
2023-02-16T23:55:13.973Z,102130.55
2023-02-16T23:57:45.251Z,102127.61
